Rechercher aéroport 
image banner adimage banner adimage banner ad
image banner ad

KMRY - Monterey Rgnl

Situé à Monterey, United States

ICAO - MRY, IATA - MRY

Données fournies par Airmate  

Information générale

Coordonnées: N36°35'13" W121°50'34"
Élévation : 257 feet MSL.
Variation magnétique : 15° East
Voir autres Aéroports à California

Données opérationnelles

Special qualification required
Heure actuelle UTC:
Heure actuelle locale:
Météo
METAR: KMRY 262254Z 26011KT 10SM FEW006 20/13 A2997 RMK AO2 SLP158 T02000133
TAF: KMRY 261720Z 2618/2718 VRB04KT P6SM SCT010 TEMPO 2618/2619 OVC007 FM262100 27010KT P6SM FEW012 SCT200 FM270200 VRB05KT 6SM BR VCSH OVC006 TEMPO 2710/2712 OVC003 FM271600 34002KT 4SM HZ SCT007
Voir NOTAMs / SUP AIP / TFR affectant cet aéroport [VIEW]
Fréquences de communication: [VIEW]

Pistes:

Identifiant RWYQFULongueur (ft)Largeur (ft)SurfaceLDA (ft)
10R113°7175150ASPH7000
28L293°7175150ASPH7000
10L113°350360ASPH3504
28R293°350360ASPH3504

Coordonnées de l'aéroport

Adresse: Monterey United States

Autres services d'aviation

Écoles de pilotage

Aerodynamic Aviation - Monterey

Aerodynamic Aviation - Monterey

Vue satellite de KMRY